sensor_id;sensor_type;location;lat;lon;timestamp;pressure;altitude;pressure_sealevel;temperature;humidity
43553;BME280;29153;42.696;23.218;2023-09-19T05:42:48;94785.58;;;15.15;100.00
43553;BME280;29153;42.696;23.218;2023-09-19T05:45:17;94789.81;;;15.19;100.00
43553;BME280;29153;42.696;23.218;2023-09-19T05:48:19;94786.33;;;15.32;100.00
43553;BME280;29153;42.696;23.218;2023-09-19T05:51:01;94787.87;;;15.52;100.00
43553;BME280;29153;42.696;23.218;2023-09-19T05:53:29;94787.87;;;15.52;100.00
43553;BME280;29153;42.696;23.218;2023-09-19T05:55:56;94793.78;;;15.62;100.00
43553;BME280;29153;42.696;23.218;2023-09-19T05:58:25;94789.30;;;15.74;100.00
43553;BME280;29153;42.696;23.218;2023-09-19T06:00:53;94784.67;;;15.77;99.58
43553;BME280;29153;42.696;23.218;2023-09-19T06:03:21;94787.79;;;15.81;100.00
43553;BME280;29153;42.696;23.218;2023-09-19T06:05:49;94784.78;;;15.97;99.93
43553;BME280;29153;42.696;23.218;2023-09-19T06:08:18;94770.95;;;15.94;98.92
43553;BME280;29153;42.696;23.218;2023-09-19T06:10:46;94775.03;;;16.03;98.48
43553;BME280;29153;42.696;23.218;2023-09-19T06:13:15;94785.38;;;16.18;96.43
43553;BME280;29153;42.696;23.218;2023-09-19T06:15:42;94776.95;;;16.25;95.73
43553;BME280;29153;42.696;23.218;2023-09-19T06:18:13;94774.09;;;16.32;97.34
43553;BME280;29153;42.696;23.218;2023-09-19T06:20:42;94774.95;;;16.42;96.68
43553;BME280;29153;42.696;23.218;2023-09-19T06:23:11;94769.50;;;16.69;93.84
43553;BME280;29153;42.696;23.218;2023-09-19T06:25:38;94769.50;;;16.69;93.84
43553;BME280;29153;42.696;23.218;2023-09-19T06:28:07;94775.65;;;16.80;92.27
43553;BME280;29153;42.696;23.218;2023-09-19T06:30:36;94776.66;;;16.93;90.71
43553;BME280;29153;42.696;23.218;2023-09-19T06:33:05;94781.02;;;17.00;90.50
43553;BME280;29153;42.696;23.218;2023-09-19T06:35:33;94781.61;;;17.19;89.62
43553;BME280;29153;42.696;23.218;2023-09-19T06:38:04;94782.06;;;17.33;88.90
43553;BME280;29153;42.696;23.218;2023-09-19T06:40:33;94778.05;;;17.33;89.46
43553;BME280;29153;42.696;23.218;2023-09-19T06:43:01;94767.55;;;17.34;92.92
43553;BME280;29153;42.696;23.218;2023-09-19T06:45:29;94784.36;;;17.37;88.85
43553;BME280;29153;42.696;23.218;2023-09-19T06:47:58;94782.86;;;17.42;88.83
43553;BME280;29153;42.696;23.218;2023-09-19T06:50:27;94786.20;;;17.47;88.53
43553;BME280;29153;42.696;23.218;2023-09-19T06:52:57;94784.16;;;17.64;90.21
43553;BME280;29153;42.696;23.218;2023-09-19T06:55:26;94773.58;;;17.87;91.43
43553;BME280;29153;42.696;23.218;2023-09-19T06:57:56;94773.58;;;17.87;91.43
43553;BME280;29153;42.696;23.218;2023-09-19T07:00:23;94781.29;;;17.89;89.88
43553;BME280;29153;42.696;23.218;2023-09-19T07:02:59;94795.45;;;18.00;86.53
43553;BME280;29153;42.696;23.218;2023-09-19T07:05:34;94799.25;;;18.16;87.68
43553;BME280;29153;42.696;23.218;2023-09-19T07:08:06;94803.92;;;18.31;84.91
43553;BME280;29153;42.696;23.218;2023-09-19T07:10:35;94804.08;;;18.43;85.32
43553;BME280;29153;42.696;23.218;2023-09-19T07:13:07;94799.27;;;18.51;83.80
43553;BME280;29153;42.696;23.218;2023-09-19T07:15:39;94807.19;;;18.56;83.47
43553;BME280;29153;42.696;23.218;2023-09-19T07:18:08;94809.75;;;18.50;83.91
43553;BME280;29153;42.696;23.218;2023-09-19T07:20:37;94808.14;;;18.60;85.00
43553;BME280;29153;42.696;23.218;2023-09-19T07:23:04;94807.25;;;18.62;84.76
43553;BME280;29153;42.696;23.218;2023-09-19T07:25:32;94809.14;;;18.70;81.36
43553;BME280;29153;42.696;23.218;2023-09-19T07:28:00;94809.06;;;18.81;80.93
43553;BME280;29153;42.696;23.218;2023-09-19T07:30:28;94812.05;;;18.88;80.47
43553;BME280;29153;42.696;23.218;2023-09-19T07:32:55;94814.73;;;18.88;80.62
43553;BME280;29153;42.696;23.218;2023-09-19T07:35:23;94818.31;;;18.78;80.82
43553;BME280;29153;42.696;23.218;2023-09-19T07:37:51;94811.20;;;18.82;80.76
43553;BME280;29153;42.696;23.218;2023-09-19T07:40:19;94819.09;;;18.95;80.34
43553;BME280;29153;42.696;23.218;2023-09-19T07:43:03;94817.55;;;19.00;80.20
43553;BME280;29153;42.696;23.218;2023-09-19T07:45:26;94809.44;;;19.26;81.16
43553;BME280;29153;42.696;23.218;2023-09-19T07:47:54;94809.44;;;19.26;81.16
43553;BME280;29153;42.696;23.218;2023-09-19T07:50:21;94812.67;;;19.26;78.58
43553;BME280;29153;42.696;23.218;2023-09-19T07:52:50;94815.02;;;19.36;79.84
43553;BME280;29153;42.696;23.218;2023-09-19T07:55:19;94813.82;;;19.48;81.36
43553;BME280;29153;42.696;23.218;2023-09-19T07:57:48;94809.48;;;19.49;80.01
43553;BME280;29153;42.696;23.218;2023-09-19T08:00:16;94813.68;;;19.68;80.45
43553;BME280;29153;42.696;23.218;2023-09-19T08:02:44;94811.52;;;19.52;77.13
43553;BME280;29153;42.696;23.218;2023-09-19T08:05:12;94800.56;;;19.43;76.79
43553;BME280;29153;42.696;23.218;2023-09-19T08:07:43;94794.29;;;19.53;78.02
43553;BME280;29153;42.696;23.218;2023-09-19T08:10:12;94803.99;;;19.75;75.86
43553;BME280;29153;42.696;23.218;2023-09-19T08:12:43;94800.38;;;19.71;78.59
43553;BME280;29153;42.696;23.218;2023-09-19T08:15:20;94795.59;;;19.91;78.34
43553;BME280;29153;42.696;23.218;2023-09-19T08:17:48;94793.28;;;19.96;76.40
43553;BME280;29153;42.696;23.218;2023-09-19T08:22:56;94792.30;;;20.00;73.45
43553;BME280;29153;42.696;23.218;2023-09-19T08:25:24;94784.81;;;20.21;77.61
43553;BME280;29153;42.696;23.218;2023-09-19T08:27:54;94793.81;;;20.39;74.95
43553;BME280;29153;42.696;23.218;2023-09-19T08:30:24;94797.48;;;20.56;75.19
43553;BME280;29153;42.696;23.218;2023-09-19T08:33:02;94792.82;;;20.92;77.73
43553;BME280;29153;42.696;23.218;2023-09-19T08:35:31;94795.20;;;21.26;75.65
43553;BME280;29153;42.696;23.218;2023-09-19T08:37:58;94800.58;;;21.32;71.55
43553;BME280;29153;42.696;23.218;2023-09-19T08:40:27;94794.33;;;21.46;68.79
43553;BME280;29153;42.696;23.218;2023-09-19T08:42:56;94790.72;;;21.42;70.81
43553;BME280;29153;42.696;23.218;2023-09-19T08:45:25;94783.30;;;21.33;72.65
43553;BME280;29153;42.696;23.218;2023-09-19T08:50:29;94779.00;;;21.20;70.44
43553;BME280;29153;42.696;23.218;2023-09-19T08:53:00;94779.44;;;21.16;69.46
43553;BME280;29153;42.696;23.218;2023-09-19T08:55:28;94776.75;;;21.16;70.42
43553;BME280;29153;42.696;23.218;2023-09-19T08:58:02;94779.13;;;21.35;70.22
43553;BME280;29153;42.696;23.218;2023-09-19T09:00:29;94777.00;;;21.29;67.76
43553;BME280;29153;42.696;23.218;2023-09-19T09:02:59;94778.34;;;21.35;69.46
43553;BME280;29153;42.696;23.218;2023-09-19T09:05:28;94773.88;;;21.57;69.27
43553;BME280;29153;42.696;23.218;2023-09-19T09:07:59;94772.55;;;21.75;66.78
43553;BME280;29153;42.696;23.218;2023-09-19T09:10:26;94770.41;;;21.99;68.16
43553;BME280;29153;42.696;23.218;2023-09-19T09:12:53;94763.28;;;22.25;67.53
43553;BME280;29153;42.696;23.218;2023-09-19T09:15:24;94709.28;;;22.03;67.03
43553;BME280;29153;42.696;23.218;2023-09-19T09:17:52;94762.27;;;22.42;65.20
43553;BME280;29153;42.696;23.218;2023-09-19T09:20:23;94758.07;;;22.50;64.00
43553;BME280;29153;42.696;23.218;2023-09-19T09:22:52;94750.58;;;22.38;65.57
43553;BME280;29153;42.696;23.218;2023-09-19T09:25:48;94744.75;;;22.23;63.55
43553;BME280;29153;42.696;23.218;2023-09-19T09:28:01;94742.58;;;22.35;63.73
43553;BME280;29153;42.696;23.218;2023-09-19T09:30:36;94738.50;;;22.01;66.52
43553;BME280;29153;42.696;23.218;2023-09-19T09:33:11;94733.43;;;22.12;64.47
43553;BME280;29153;42.696;23.218;2023-09-19T09:35:53;94674.44;;;21.98;65.51
43553;BME280;29153;42.696;23.218;2023-09-19T09:38:24;94721.06;;;22.79;68.36
43553;BME280;29153;42.696;23.218;2023-09-19T09:40:55;94716.03;;;23.14;60.95
43553;BME280;29153;42.696;23.218;2023-09-19T09:43:33;94718.95;;;23.63;60.07
43553;BME280;29153;42.696;23.218;2023-09-19T09:48:57;94711.70;;;23.67;61.09
43553;BME280;29153;42.696;23.218;2023-09-19T09:51:43;94713.24;;;23.27;57.08
43553;BME280;29153;42.696;23.218;2023-09-19T09:54:16;94714.23;;;23.28;59.00
43553;BME280;29153;42.696;23.218;2023-09-19T09:56:59;94715.09;;;23.32;59.55
43553;BME280;29153;42.696;23.218;2023-09-19T10:02:15;94702.59;;;23.34;60.18
43553;BME280;29153;42.696;23.218;2023-09-19T10:04:44;94704.81;;;23.38;57.36
43553;BME280;29153;42.696;23.218;2023-09-19T10:07:24;94704.25;;;23.38;58.25
43553;BME280;29153;42.696;23.218;2023-09-19T10:09:47;94700.84;;;23.47;58.53
43553;BME280;29153;42.696;23.218;2023-09-19T10:12:16;94694.44;;;23.24;58.80
43553;BME280;29153;42.696;23.218;2023-09-19T10:14:45;94693.29;;;23.41;60.16
43553;BME280;29153;42.696;23.218;2023-09-19T10:17:15;94699.06;;;23.39;60.66
43553;BME280;29153;42.696;23.218;2023-09-19T10:19:57;94701.06;;;23.42;57.65
43553;BME280;29153;42.696;23.218;2023-09-19T10:22:28;94702.19;;;23.41;60.17
43553;BME280;29153;42.696;23.218;2023-09-19T10:24:59;94700.34;;;23.36;61.87
43553;BME280;29153;42.696;23.218;2023-09-19T10:27:31;94703.16;;;23.33;61.10
43553;BME280;29153;42.696;23.218;2023-09-19T10:30:01;94702.09;;;23.06;58.03
43553;BME280;29153;42.696;23.218;2023-09-19T10:32:30;94700.94;;;23.13;58.00
43553;BME280;29153;42.696;23.218;2023-09-19T10:34:59;94703.67;;;23.07;57.43
43553;BME280;29153;42.696;23.218;2023-09-19T10:37:32;94699.30;;;23.03;59.07
43553;BME280;29153;42.696;23.218;2023-09-19T10:39:59;94698.66;;;23.00;61.58
43553;BME280;29153;42.696;23.218;2023-09-19T10:42:27;94684.89;;;23.05;63.29
43553;BME280;29153;42.696;23.218;2023-09-19T10:44:57;94679.23;;;23.10;62.00
43553;BME280;29153;42.696;23.218;2023-09-19T10:47:27;94678.47;;;23.19;59.04
43553;BME280;29153;42.696;23.218;2023-09-19T10:49:55;94680.44;;;23.28;59.18
43553;BME280;29153;42.696;23.218;2023-09-19T10:52:23;94682.02;;;23.29;56.86
43553;BME280;29153;42.696;23.218;2023-09-19T10:54:53;94678.69;;;23.20;56.53
43553;BME280;29153;42.696;23.218;2023-09-19T10:57:24;94678.39;;;23.15;59.49
43553;BME280;29153;42.696;23.218;2023-09-19T11:00:07;94678.12;;;23.36;60.52
43553;BME280;29153;42.696;23.218;2023-09-19T11:05:41;94673.97;;;23.23;58.86
43553;BME280;29153;42.696;23.218;2023-09-19T11:08:10;94674.17;;;23.40;61.60
43553;BME280;29153;42.696;23.218;2023-09-19T11:10:49;94669.68;;;23.22;61.26
43553;BME280;29153;42.696;23.218;2023-09-19T11:13:28;94669.73;;;23.47;57.23
43553;BME280;29153;42.696;23.218;2023-09-19T11:21:38;94669.39;;;23.49;58.19
43553;BME280;29153;42.696;23.218;2023-09-19T11:26:51;94664.59;;;23.68;56.20
43553;BME280;29153;42.696;23.218;2023-09-19T11:29:27;94646.39;;;23.84;56.42
43553;BME280;29153;42.696;23.218;2023-09-19T11:31:56;94643.29;;;23.91;61.14
43553;BME280;29153;42.696;23.218;2023-09-19T11:34:39;94645.40;;;23.92;57.38
43553;BME280;29153;42.696;23.218;2023-09-19T11:40:06;94636.19;;;23.68;60.50
43553;BME280;29153;42.696;23.218;2023-09-19T11:42:50;94625.68;;;23.82;59.60
43553;BME280;29153;42.696;23.218;2023-09-19T11:48:18;94549.32;;;23.28;54.59
43553;BME280;29153;42.696;23.218;2023-09-19T11:50:46;94617.89;;;23.71;56.33
43553;BME280;29153;42.696;23.218;2023-09-19T11:53:15;94616.34;;;23.79;55.88
43553;BME280;29153;42.696;23.218;2023-09-19T11:55:46;94620.05;;;23.81;55.67
43553;BME280;29153;42.696;23.218;2023-09-19T11:58:18;94614.28;;;23.92;54.72
43553;BME280;29153;42.696;23.218;2023-09-19T12:00:47;94608.40;;;23.96;57.55
43553;BME280;29153;42.696;23.218;2023-09-19T12:03:16;94606.53;;;23.90;56.27
43553;BME280;29153;42.696;23.218;2023-09-19T12:05:44;94600.62;;;23.94;55.04
43553;BME280;29153;42.696;23.218;2023-09-19T12:08:14;94596.06;;;23.98;54.10
43553;BME280;29153;42.696;23.218;2023-09-19T12:10:47;94597.84;;;24.10;53.90
43553;BME280;29153;42.696;23.218;2023-09-19T12:13:19;94590.88;;;24.28;52.76
43553;BME280;29153;42.696;23.218;2023-09-19T12:15:47;94588.74;;;24.28;55.03
43553;BME280;29153;42.696;23.218;2023-09-19T12:18:29;94577.56;;;24.29;54.87
43553;BME280;29153;42.696;23.218;2023-09-19T12:20:57;94578.86;;;24.26;55.79
43553;BME280;29153;42.696;23.218;2023-09-19T12:23:30;94570.41;;;24.31;55.02
43553;BME280;29153;42.696;23.218;2023-09-19T12:25:58;94560.82;;;24.24;53.90
43553;BME280;29153;42.696;23.218;2023-09-19T12:28:28;94564.59;;;24.19;55.15
43553;BME280;29153;42.696;23.218;2023-09-19T12:30:57;94560.47;;;24.25;53.04
43553;BME280;29153;42.696;23.218;2023-09-19T12:33:24;94554.91;;;24.18;54.08
43553;BME280;29153;42.696;23.218;2023-09-19T12:35:53;94553.33;;;24.08;55.26
43553;BME280;29153;42.696;23.218;2023-09-19T12:38:24;94551.98;;;24.08;55.42
43553;BME280;29153;42.696;23.218;2023-09-19T12:40:59;94553.60;;;24.31;57.86
43553;BME280;29153;42.696;23.218;2023-09-19T12:43:29;94552.59;;;24.39;56.05
43553;BME280;29153;42.696;23.218;2023-09-19T12:45:58;94545.74;;;24.45;54.19
43553;BME280;29153;42.696;23.218;2023-09-19T12:48:25;94550.39;;;24.35;57.35
43553;BME280;29153;42.696;23.218;2023-09-19T12:51:01;94543.38;;;24.44;53.85
43553;BME280;29153;42.696;23.218;2023-09-19T12:53:38;94545.86;;;24.30;54.21
43553;BME280;29153;42.696;23.218;2023-09-19T12:56:08;94542.16;;;24.19;55.04
43553;BME280;29153;42.696;23.218;2023-09-19T12:58:56;94536.39;;;24.20;55.88
43553;BME280;29153;42.696;23.218;2023-09-19T13:01:26;94533.08;;;24.30;55.51
43553;BME280;29153;42.696;23.218;2023-09-19T13:04:17;94535.83;;;24.43;53.20
43553;BME280;29153;42.696;23.218;2023-09-19T13:06:52;94537.40;;;24.44;54.13
43553;BME280;29153;42.696;23.218;2023-09-19T13:09:22;94532.14;;;24.42;53.16
43553;BME280;29153;42.696;23.218;2023-09-19T13:11:58;94527.84;;;24.51;53.63
43553;BME280;29153;42.696;23.218;2023-09-19T13:14:27;94523.02;;;24.40;51.81
43553;BME280;29153;42.696;23.218;2023-09-19T13:17:04;94467.30;;;23.97;53.12
43553;BME280;29153;42.696;23.218;2023-09-19T13:19:49;94515.98;;;24.26;52.54
43553;BME280;29153;42.696;23.218;2023-09-19T13:22:41;94508.01;;;24.33;53.66
43553;BME280;29153;42.696;23.218;2023-09-19T13:25:22;94507.57;;;24.31;55.27
43553;BME280;29153;42.696;23.218;2023-09-19T13:27:52;94512.14;;;24.27;54.01
43553;BME280;29153;42.696;23.218;2023-09-19T13:30:24;94505.44;;;24.31;54.18
43553;BME280;29153;42.696;23.218;2023-09-19T13:33:04;94504.97;;;24.25;52.78
43553;BME280;29153;42.696;23.218;2023-09-19T13:35:22;94507.22;;;24.33;53.18
43553;BME280;29153;42.696;23.218;2023-09-19T13:37:49;94507.00;;;24.32;52.51
43553;BME280;29153;42.696;23.218;2023-09-19T13:40:18;94503.95;;;24.33;54.12
43553;BME280;29153;42.696;23.218;2023-09-19T13:42:46;94505.02;;;24.29;53.61
43553;BME280;29153;42.696;23.218;2023-09-19T13:45:13;94501.88;;;24.27;55.63
43553;BME280;29153;42.696;23.218;2023-09-19T13:47:42;94503.84;;;24.17;52.73
43553;BME280;29153;42.696;23.218;2023-09-19T13:50:09;94503.98;;;24.04;53.85
43553;BME280;29153;42.696;23.218;2023-09-19T13:52:40;94499.27;;;24.01;55.72
43553;BME280;29153;42.696;23.218;2023-09-19T13:55:09;94500.84;;;24.02;56.03
43553;BME280;29153;42.696;23.218;2023-09-19T13:57:36;94499.33;;;24.05;56.78
43553;BME280;29153;42.696;23.218;2023-09-19T14:00:05;94497.27;;;24.18;55.75
43553;BME280;29153;42.696;23.218;2023-09-19T14:02:34;94496.06;;;24.25;55.01
43553;BME280;29153;42.696;23.218;2023-09-19T14:05:01;94492.17;;;24.35;54.05
43553;BME280;29153;42.696;23.218;2023-09-19T14:07:29;94494.25;;;24.32;53.37
43553;BME280;29153;42.696;23.218;2023-09-19T14:09:56;94497.47;;;24.28;55.93
43553;BME280;29153;42.696;23.218;2023-09-19T14:12:24;94497.39;;;24.34;54.97
43553;BME280;29153;42.696;23.218;2023-09-19T14:14:51;94494.69;;;24.34;55.44
43553;BME280;29153;42.696;23.218;2023-09-19T14:17:20;94497.53;;;24.32;53.70
43553;BME280;29153;42.696;23.218;2023-09-19T14:19:48;94490.54;;;24.31;54.26
43553;BME280;29153;42.696;23.218;2023-09-19T14:22:15;94489.70;;;24.27;56.46
43553;BME280;29153;42.696;23.218;2023-09-19T14:24:43;94489.34;;;24.28;56.20
43553;BME280;29153;42.696;23.218;2023-09-19T14:27:10;94482.69;;;24.35;56.99
43553;BME280;29153;42.696;23.218;2023-09-19T14:29:38;94484.50;;;24.28;55.19
43553;BME280;29153;42.696;23.218;2023-09-19T14:32:05;94477.38;;;24.29;57.76
43553;BME280;29153;42.696;23.218;2023-09-19T14:34:33;94470.36;;;24.15;59.28
43553;BME280;29153;42.696;23.218;2023-09-19T14:37:02;94480.53;;;24.12;58.51
43553;BME280;29153;42.696;23.218;2023-09-19T14:39:30;94470.41;;;24.09;60.52
43553;BME280;29153;42.696;23.218;2023-09-19T14:41:58;94471.23;;;24.00;61.24
43553;BME280;29153;42.696;23.218;2023-09-19T14:44:25;94476.43;;;23.89;63.68
43553;BME280;29153;42.696;23.218;2023-09-19T14:46:54;94467.25;;;23.75;64.74
43553;BME280;29153;42.696;23.218;2023-09-19T14:49:22;94470.61;;;23.68;67.65
43553;BME280;29153;42.696;23.218;2023-09-19T14:51:49;94468.13;;;23.59;68.95
43553;BME280;29153;42.696;23.218;2023-09-19T14:54:18;94474.72;;;23.43;68.69
43553;BME280;29153;42.696;23.218;2023-09-19T14:56:46;94464.05;;;23.31;69.98
43553;BME280;29153;42.696;23.218;2023-09-19T14:59:15;94459.05;;;23.33;72.17
43553;BME280;29153;42.696;23.218;2023-09-19T15:01:42;94456.55;;;23.24;69.51
43553;BME280;29153;42.696;23.218;2023-09-19T15:04:10;94459.32;;;23.08;69.54
43553;BME280;29153;42.696;23.218;2023-09-19T15:06:38;94456.17;;;23.06;68.63
43553;BME280;29153;42.696;23.218;2023-09-19T15:09:05;94456.33;;;23.04;67.06
43553;BME280;29153;42.696;23.218;2023-09-19T15:11:35;94455.20;;;23.05;68.03
43553;BME280;29153;42.696;23.218;2023-09-19T15:14:02;94451.56;;;23.07;70.25
43553;BME280;29153;42.696;23.218;2023-09-19T15:16:30;94448.94;;;23.01;70.20
43553;BME280;29153;42.696;23.218;2023-09-19T15:18:59;94448.86;;;22.97;72.39
43553;BME280;29153;42.696;23.218;2023-09-19T15:21:26;94438.17;;;22.95;73.83
43553;BME280;29153;42.696;23.218;2023-09-19T15:23:54;94439.68;;;22.92;69.28
43553;BME280;29153;42.696;23.218;2023-09-19T15:26:22;94434.20;;;22.89;71.08
43553;BME280;29153;42.696;23.218;2023-09-19T15:28:51;94440.52;;;22.87;71.83
43553;BME280;29153;42.696;23.218;2023-09-19T15:31:20;94435.64;;;22.77;72.41
43553;BME280;29153;42.696;23.218;2023-09-19T15:33:48;94439.99;;;22.72;73.94
43553;BME280;29153;42.696;23.218;2023-09-19T15:36:16;94440.75;;;22.72;75.28
43553;BME280;29153;42.696;23.218;2023-09-19T15:38:56;94441.50;;;22.63;76.22
43553;BME280;29153;42.696;23.218;2023-09-19T15:41:32;94442.29;;;22.48;77.21
43553;BME280;29153;42.696;23.218;2023-09-19T15:44:01;94444.77;;;22.47;77.44
43553;BME280;29153;42.696;23.218;2023-09-19T15:46:31;94449.14;;;22.36;78.17
43553;BME280;29153;42.696;23.218;2023-09-19T15:49:00;94448.67;;;22.24;79.76
43553;BME280;29153;42.696;23.218;2023-09-19T15:51:28;94453.79;;;22.13;80.62
43553;BME280;29153;42.696;23.218;2023-09-19T15:53:57;94457.92;;;22.01;81.56
43553;BME280;29153;42.696;23.218;2023-09-19T15:56:26;94457.83;;;21.92;82.61
43553;BME280;29153;42.696;23.218;2023-09-19T15:58:55;94466.86;;;21.84;83.39
43553;BME280;29153;42.696;23.218;2023-09-19T16:01:23;94458.28;;;21.72;83.80
43553;BME280;29153;42.696;23.218;2023-09-19T16:03:53;94461.04;;;21.60;84.39
43553;BME280;29153;42.696;23.218;2023-09-19T16:06:27;94465.23;;;21.51;84.53
43553;BME280;29153;42.696;23.218;2023-09-19T16:08:56;94467.30;;;21.36;85.24
43553;BME280;29153;42.696;23.218;2023-09-19T16:11:26;94460.41;;;21.17;86.42
43553;BME280;29153;42.696;23.218;2023-09-19T16:13:54;94464.91;;;21.13;87.10
43553;BME280;29153;42.696;23.218;2023-09-19T16:16:23;94459.63;;;20.98;88.48
43553;BME280;29153;42.696;23.218;2023-09-19T16:18:53;94474.67;;;20.93;89.32
43553;BME280;29153;42.696;23.218;2023-09-19T16:21:23;94473.67;;;20.85;89.74
43553;BME280;29153;42.696;23.218;2023-09-19T16:23:53;94468.64;;;20.78;90.31
43553;BME280;29153;42.696;23.218;2023-09-19T16:26:22;94467.97;;;20.63;91.07
43553;BME280;29153;42.696;23.218;2023-09-19T16:28:52;94470.34;;;20.52;91.59
43553;BME280;29153;42.696;23.218;2023-09-19T16:34:32;94472.34;;;20.37;92.73
43553;BME280;29153;42.696;23.218;2023-09-19T16:37:00;94479.69;;;20.16;93.60
43553;BME280;29153;42.696;23.218;2023-09-19T16:39:28;94476.44;;;19.98;94.41
43553;BME280;29153;42.696;23.218;2023-09-19T16:41:56;94482.66;;;19.90;94.67
43553;BME280;29153;42.696;23.218;2023-09-19T16:44:23;94488.05;;;19.84;94.60
43553;BME280;29153;42.696;23.218;2023-09-19T16:46:51;94484.54;;;19.77;94.59
43553;BME280;29153;42.696;23.218;2023-09-19T16:49:18;94478.02;;;19.66;94.99
43553;BME280;29153;42.696;23.218;2023-09-19T16:51:47;94489.17;;;19.56;95.67
43553;BME280;29153;42.696;23.218;2023-09-19T16:54:30;94492.05;;;19.45;95.83
43553;BME280;29153;42.696;23.218;2023-09-19T16:56:58;94496.67;;;19.36;96.04
43553;BME280;29153;42.696;23.218;2023-09-19T16:59:25;94488.50;;;19.12;97.16
43553;BME280;29153;42.696;23.218;2023-09-19T17:01:54;94492.53;;;19.12;96.94
43553;BME280;29153;42.696;23.218;2023-09-19T17:04:23;94495.78;;;18.96;97.87
43553;BME280;29153;42.696;23.218;2023-09-19T17:06:52;94495.05;;;18.87;98.61
43553;BME280;29153;42.696;23.218;2023-09-19T17:09:20;94495.52;;;18.89;98.45
43553;BME280;29153;42.696;23.218;2023-09-19T17:11:47;94501.44;;;18.89;98.33
43553;BME280;29153;42.696;23.218;2023-09-19T17:14:16;94493.68;;;18.81;98.32
43553;BME280;29153;42.696;23.218;2023-09-19T17:16:45;94502.02;;;18.74;98.66
43553;BME280;29153;42.696;23.218;2023-09-19T17:19:14;94499.59;;;18.66;98.76
43553;BME280;29153;42.696;23.218;2023-09-19T17:21:41;94497.45;;;18.51;99.37
43553;BME280;29153;42.696;23.218;2023-09-19T17:24:09;94497.39;;;18.45;100.00
43553;BME280;29153;42.696;23.218;2023-09-19T17:26:38;94494.25;;;18.43;100.00
43553;BME280;29153;42.696;23.218;2023-09-19T17:29:07;94493.41;;;18.36;100.00
43553;BME280;29153;42.696;23.218;2023-09-19T17:31:36;94499.52;;;18.31;100.00
43553;BME280;29153;42.696;23.218;2023-09-19T17:34:05;94501.17;;;18.29;100.00
43553;BME280;29153;42.696;23.218;2023-09-19T17:36:33;94462.56;;;17.98;99.88
43553;BME280;29153;42.696;23.218;2023-09-19T17:39:02;94512.81;;;18.10;100.00
43553;BME280;29153;42.696;23.218;2023-09-19T17:41:31;94512.81;;;18.10;100.00
43553;BME280;29153;42.696;23.218;2023-09-19T17:43:59;94518.83;;;18.07;100.00
43553;BME280;29153;42.696;23.218;2023-09-19T17:46:27;94510.48;;;18.08;100.00
43553;BME280;29153;42.696;23.218;2023-09-19T17:48:59;94513.47;;;18.07;100.00
43553;BME280;29153;42.696;23.218;2023-09-19T17:51:26;94509.06;;;18.02;100.00
43553;BME280;29153;42.696;23.218;2023-09-19T17:53:56;94514.38;;;17.96;100.00
43553;BME280;29153;42.696;23.218;2023-09-19T17:56:26;94520.21;;;17.90;100.00
43553;BME280;29153;42.696;23.218;2023-09-19T17:58:54;94523.78;;;17.88;100.00
43553;BME280;29153;42.696;23.218;2023-09-19T18:01:24;94533.23;;;17.85;100.00
43553;BME280;29153;42.696;23.218;2023-09-19T18:03:53;94531.74;;;17.82;100.00
43553;BME280;29153;42.696;23.218;2023-09-19T18:06:25;94526.64;;;17.74;100.00
43553;BME280;29153;42.696;23.218;2023-09-19T18:08:53;94521.69;;;17.61;100.00
43553;BME280;29153;42.696;23.218;2023-09-19T18:11:27;94529.86;;;17.56;100.00
43553;BME280;29153;42.696;23.218;2023-09-19T18:13:56;94534.67;;;17.48;100.00
43553;BME280;29153;42.696;23.218;2023-09-19T18:16:25;94534.67;;;17.48;100.00
43553;BME280;29153;42.696;23.218;2023-09-19T18:18:57;94529.16;;;17.45;100.00
43553;BME280;29153;42.696;23.218;2023-09-19T18:21:27;94532.39;;;17.44;100.00
43553;BME280;29153;42.696;23.218;2023-09-19T18:23:57;94529.86;;;17.30;100.00
43553;BME280;29153;42.696;23.218;2023-09-19T18:26:30;94524.75;;;17.32;100.00
43553;BME280;29153;42.696;23.218;2023-09-19T18:28:57;94530.56;;;17.34;100.00
43553;BME280;29153;42.696;23.218;2023-09-19T18:31:27;94543.95;;;17.34;100.00
43553;BME280;29153;42.696;23.218;2023-09-19T18:33:56;94549.95;;;17.30;100.00
43553;BME280;29153;42.696;23.218;2023-09-19T18:36:24;94550.65;;;17.34;100.00
43553;BME280;29153;42.696;23.218;2023-09-19T18:38:53;94553.26;;;17.27;100.00
43553;BME280;29153;42.696;23.218;2023-09-19T18:41:21;94557.66;;;17.15;100.00
43553;BME280;29153;42.696;23.218;2023-09-19T18:43:49;94561.98;;;17.13;100.00
43553;BME280;29153;42.696;23.218;2023-09-19T18:46:17;94559.43;;;17.00;100.00
43553;BME280;29153;42.696;23.218;2023-09-19T18:48:45;94559.43;;;17.00;100.00
43553;BME280;29153;42.696;23.218;2023-09-19T18:51:14;94563.39;;;17.02;100.00
43553;BME280;29153;42.696;23.218;2023-09-19T18:53:45;94569.06;;;17.18;100.00
43553;BME280;29153;42.696;23.218;2023-09-19T18:56:16;94562.30;;;17.29;100.00
43553;BME280;29153;42.696;23.218;2023-09-19T18:58:47;94565.91;;;17.24;100.00
43553;BME280;29153;42.696;23.218;2023-09-19T19:01:14;94567.50;;;17.25;100.00
43553;BME280;29153;42.696;23.218;2023-09-19T19:03:42;94566.70;;;17.25;100.00
43553;BME280;29153;42.696;23.218;2023-09-19T19:06:12;94564.67;;;17.30;100.00
43553;BME280;29153;42.696;23.218;2023-09-19T19:08:44;94566.41;;;17.35;100.00
43553;BME280;29153;42.696;23.218;2023-09-19T19:11:15;94569.09;;;17.44;100.00
43553;BME280;29153;42.696;23.218;2023-09-19T19:13:47;94569.09;;;17.44;100.00
43553;BME280;29153;42.696;23.218;2023-09-19T19:16:14;94572.95;;;17.40;100.00